Observation data for Clarendon on 08/10/2018      Previous  Date       Current Mesonet Observations  Soil Data  Daily Summary Page  Observations in Plain Language
KCES 100505Z 13003KT 22/17 A3013 RMK A01 T02160170  RH  079%=      5-min Rain = 0
KCES 100510Z 13003KT 22/17 A3013 RMK A01 T02150171  RH  080%=      5-min Rain = 0
KCES 100515Z 13004KT 22/17 A3013 RMK A01 T02160174  RH  081%=      5-min Rain = 0
KCES 100520Z 13004KT 22/18 A3013 RMK A01 T02180176  RH  081%=      5-min Rain = 0
KCES 100525Z 14004KT 22/17 A3013 RMK A01 T02170173  RH  080%=      5-min Rain = 0
KCES 100530Z 14005KT 22/18 A3013 RMK A01 T02190177  RH  081%=      5-min Rain = 0
KCES 100535Z 14005KT 22/18 A3013 RMK A01 T02190177  RH  081%=      5-min Rain = 0
KCES 100540Z 14007KT 22/18 A3013 RMK A01 T02230182  RH  082%=      5-min Rain = 0
KCES 100545Z 14008KT 23/18 A3013 RMK A01 T02270184  RH  081%=      5-min Rain = 0
KCES 100550Z 14009KT 23/19 A3013 RMK A01 T02310185  RH  079%=      5-min Rain = 0
KCES 100555Z 15008KT 23/19 A3013 RMK A01 T02330185  RH  078%=      5-min Rain = 0
KCES 100600Z 15008KT 23/19 A3013 RMK A01 T02330185  RH  079%=      5-min Rain = 0
KCES 100605Z 15008KT 23/19 A3013 RMK A01 T02320185  RH  079%=      5-min Rain = 0
KCES 100610Z 15007KT 23/19 A3013 RMK A01 T02310185  RH  079%=      5-min Rain = 0
KCES 100615Z 16008KT 23/18 A3013 RMK A01 T02310184  RH  079%=      5-min Rain = 0
KCES 100620Z 16007KT 23/18 A3013 RMK A01 T02320184  RH  079%=      5-min Rain = 0
KCES 100625Z 18005KT 23/18 A3013 RMK A01 T02290183  RH  079%=      5-min Rain = 0
KCES 100630Z 18005KT 23/18 A3013 RMK A01 T02250182  RH  081%=      5-min Rain = 0
KCES 100635Z 18005KT 22/18 A3013 RMK A01 T02220181  RH  082%=      5-min Rain = 0
KCES 100640Z 18005KT 22/18 A3013 RMK A01 T02200181  RH  082%=      5-min Rain = 0
KCES 100645Z 18006KT 22/18 A3013 RMK A01 T02190180  RH  083%=      5-min Rain = 0
KCES 100650Z 18006KT 22/18 A3013 RMK A01 T02180179  RH  083%=      5-min Rain = 0
KCES 100655Z 18006KT 22/18 A3013 RMK A01 T02170179  RH  083%=      5-min Rain = 0
KCES 100700Z 18006KT 22/18 A3013 RMK A01 T02160178  RH  083%=      5-min Rain = 0
KCES 100705Z 18005KT 22/18 A3012 RMK A01 T02150177  RH  083%=      5-min Rain = 0
KCES 100710Z 18006KT 21/18 A3012 RMK A01 T02130176  RH  084%=      5-min Rain = 0
KCES 100715Z 19006KT 21/18 A3012 RMK A01 T02120176  RH  084%=      5-min Rain = 0
KCES 100720Z 19006KT 21/18 A3012 RMK A01 T02130176  RH  083%=      5-min Rain = 0
KCES 100725Z 18005KT 21/18 A3012 RMK A01 T02120175  RH  083%=      5-min Rain = 0
KCES 100730Z 18004KT 21/17 A3012 RMK A01 T02110174  RH  083%=      5-min Rain = 0
KCES 100735Z 19003KT 21/17 A3012 RMK A01 T02090173  RH  084%=      5-min Rain = 0
KCES 100740Z 21003KT 21/17 A3012 RMK A01 T02070172  RH  085%=      5-min Rain = 0
KCES 100745Z 21004KT 21/17 A3012 RMK A01 T02050172  RH  085%=      5-min Rain = 0
KCES 100750Z 19004KT 21/17 A3012 RMK A01 T02050172  RH  086%=      5-min Rain = 0
KCES 100755Z 18004KT 21/17 A3012 RMK A01 T02050173  RH  086%=      5-min Rain = 0
KCES 100800Z 19002KT 21/17 A3012 RMK A01 T02050172  RH  086%=      5-min Rain = 0
KCES 100805Z 18002KT 20/17 A3012 RMK A01 T02030171  RH  086%=      5-min Rain = 0
KCES 100810Z 18001KT 20/17 A3012 RMK A01 T02020170  RH  086%=      5-min Rain = 0
KCES 100815Z 17000KT 20/17 A3012 RMK A01 T02010169  RH  086%=      5-min Rain = 0
KCES 100820Z 17001KT 20/17 A3011 RMK A01 T02000169  RH  087%=      5-min Rain = 0
KCES 100825Z 17000KT 20/17 A3011 RMK A01 T01980167  RH  087%=      5-min Rain = 0
KCES 100830Z 15001KT 20/17 A3011 RMK A01 T01960167  RH  088%=      5-min Rain = 0
KCES 100835Z 16002KT 20/17 A3011 RMK A01 T01960169  RH  088%=      5-min Rain = 0
KCES 100840Z 16002KT 19/16 A3011 RMK A01 T01930164  RH  088%=      5-min Rain = 0
KCES 100845Z 16002KT 19/16 A301 RMK A01 T01910164  RH  089%=      5-min Rain = 0
KCES 100850Z 18001KT 19/16 A301 RMK A01 T01900163  RH  089%=      5-min Rain = 0
KCES 100855Z 18001KT 19/16 A301 RMK A01 T01870160  RH  089%=      5-min Rain = 0
KCES 100900Z 18001KT 19/16 A301 RMK A01 T01850161  RH  090%=      5-min Rain = 0
KCES 100905Z 18002KT 19/16 A301 RMK A01 T01860162  RH  090%=      5-min Rain = 0
KCES 100910Z 18002KT 19/16 A301 RMK A01 T01850161  RH  090%=      5-min Rain = 0
KCES 100915Z 19001KT 18/16 A301 RMK A01 T01820158  RH  090%=      5-min Rain = 0
KCES 100920Z 19001KT 18/16 A301 RMK A01 T01790155  RH  090%=      5-min Rain = 0
KCES 100925Z 19001KT 18/16 A301 RMK A01 T01790156  RH  091%=      5-min Rain = 0
KCES 100930Z 19001KT 18/16 A301 RMK A01 T01810159  RH  091%=      5-min Rain = 0
KCES 100935Z 19001KT 18/16 A301 RMK A01 T01840163  RH  092%=      5-min Rain = 0
KCES 100940Z 19000KT 19/17 A301 RMK A01 T01860165  RH  092%=      5-min Rain = 0
KCES 100945Z 19001KT 19/16 A301 RMK A01 T01860164  RH  091%=      5-min Rain = 0
KCES 100950Z 16002KT 19/16 A301 RMK A01 T01860164  RH  092%=      5-min Rain = 0
KCES 100955Z 14002KT 19/17 A301 RMK A01 T01880166  RH  091%=      5-min Rain = 0
KCES 101000Z 16003KT 18/16 A301 RMK A01 T01840159  RH  090%=      5-min Rain = 0
KCES 101005Z 16003KT 18/16 A3011 RMK A01 T01830160  RH  091%=      5-min Rain = 0
KCES 101010Z 17003KT 18/16 A3011 RMK A01 T01840161  RH  091%=      5-min Rain = 0
KCES 101015Z 17003KT 19/16 A3011 RMK A01 T01850161  RH  090%=      5-min Rain = 0
KCES 101020Z 17002KT 19/16 A3011 RMK A01 T01850160  RH  089%=      5-min Rain = 0
KCES 101025Z 17002KT 18/16 A3011 RMK A01 T01820155  RH  089%=      5-min Rain = 0
KCES 101030Z 17001KT 18/16 A3011 RMK A01 T01810156  RH  089%=      5-min Rain = 0
KCES 101035Z 21001KT 18/16 A3011 RMK A01 T01810156  RH  090%=      5-min Rain = 0
KCES 101040Z 20002KT 18/16 A3011 RMK A01 T01810157  RH  090%=      5-min Rain = 0
KCES 101045Z 19002KT 18/16 A3011 RMK A01 T01830158  RH  090%=      5-min Rain = 0
KCES 101050Z 20002KT 19/16 A3011 RMK A01 T01850160  RH  090%=      5-min Rain = 0
KCES 101055Z 20002KT 19/16 A3011 RMK A01 T01860160  RH  089%=      5-min Rain = 0
KCES 101100Z 20002KT 18/16 A3011 RMK A01 T01840156  RH  088%=      5-min Rain = 0
KCES 101105Z 20002KT 18/16 A3011 RMK A01 T01820155  RH  088%=      5-min Rain = 0
KCES 101110Z 20003KT 18/16 A3011 RMK A01 T01840157  RH  089%=      5-min Rain = 0
KCES 101115Z 20003KT 18/16 A3011 RMK A01 T01840156  RH  088%=      5-min Rain = 0
KCES 101120Z 22003KT 18/16 A3011 RMK A01 T01830156  RH  088%=      5-min Rain = 0
KCES 101125Z 23003KT 18/16 A3011 RMK A01 T01830157  RH  088%=      5-min Rain = 0
KCES 101130Z 24003KT 18/16 A3011 RMK A01 T01840156  RH  088%=      5-min Rain = 0
KCES 101135Z 26003KT 18/15 A3011 RMK A01 T01830154  RH  087%=      5-min Rain = 0
KCES 101140Z 26002KT 18/15 A3011 RMK A01 T01820153  RH  087%=      5-min Rain = 0
KCES 101145Z 25002KT 18/15 A3011 RMK A01 T01830154  RH  087%=      5-min Rain = 0
KCES 101150Z 25002KT 19/16 A3011 RMK A01 T01870157  RH  087%=      5-min Rain = 0
KCES 101155Z 24003KT 19/16 A3011 RMK A01 T01920157  RH  084%=      5-min Rain = 0
KCES 101200Z 24003KT 20/16 A3011 RMK A01 T01960155  RH  081%=      5-min Rain = 0
KCES 101205Z 24004KT 20/16 A3011 RMK A01 T01990155  RH  079%=      5-min Rain = 0
KCES 101210Z 23004KT 20/16 A301 RMK A01 T02020155  RH  078%=      5-min Rain = 0
KCES 101215Z 22003KT 20/16 A301 RMK A01 T02040155  RH  077%=      5-min Rain = 0
KCES 101220Z 21003KT 21/16 A3011 RMK A01 T02050156  RH  077%=      5-min Rain = 0
KCES 101225Z 23003KT 21/16 A3011 RMK A01 T02070156  RH  076%=      5-min Rain = 0
KCES 101230Z 23002KT 21/16 A3011 RMK A01 T02090157  RH  076%=      5-min Rain = 0
KCES 101235Z 21003KT 21/16 A301 RMK A01 T02120159  RH  076%=      5-min Rain = 0
KCES 101240Z 20003KT 21/16 A3011 RMK A01 T02120161  RH  076%=      5-min Rain = 0
KCES 101245Z 19004KT 21/16 A3011 RMK A01 T02100162  RH  078%=      5-min Rain = 0
KCES 101250Z 19005KT 21/16 A301 RMK A01 T02080164  RH  080%=      5-min Rain = 0
KCES 101255Z 19005KT 21/17 A301 RMK A01 T02110167  RH  080%=      5-min Rain = 0
KCES 101300Z 20003KT 22/17 A3011 RMK A01 T02170171  RH  079%=      5-min Rain = 0
KCES 101305Z 01003KT 22/17 A3011 RMK A01 T02230173  RH  077%=      5-min Rain = 0
KCES 101310Z 04002KT 23/17 A3011 RMK A01 T02250169  RH  074%=      5-min Rain = 0
KCES 101315Z 01003KT 23/17 A3011 RMK A01 T02270171  RH  074%=      5-min Rain = 0
KCES 101320Z 02004KT 23/17 A3011 RMK A01 T02260171  RH  075%=      5-min Rain = 0
KCES 101325Z 02004KT 23/17 A3011 RMK A01 T02250170  RH  075%=      5-min Rain = 0
KCES 101330Z 03004KT 22/17 A3012 RMK A01 T02230170  RH  076%=      5-min Rain = 0
KCES 101335Z 02003KT 22/17 A3012 RMK A01 T02210170  RH  076%=      5-min Rain = 0
KCES 101340Z 02003KT 22/17 A3012 RMK A01 T02200169  RH  077%=      5-min Rain = 0
KCES 101345Z 05003KT 22/17 A3012 RMK A01 T02200169  RH  076%=      5-min Rain = 0
KCES 101350Z 04003KT 22/17 A3012 RMK A01 T02230169  RH  075%=      5-min Rain = 0
KCES 101355Z 04003KT 23/17 A3012 RMK A01 T02260167  RH  073%=      5-min Rain = 0
KCES 101400Z 06004KT 23/17 A3012 RMK A01 T02270167  RH  072%=      5-min Rain = 0
KCES 101405Z 06003KT 23/17 A3012 RMK A01 T02290165  RH  071%=      5-min Rain = 0
KCES 101410Z 04003KT 23/17 A3012 RMK A01 T02330168  RH  070%=      5-min Rain = 0
KCES 101415Z 02003KT 24/17 A3012 RMK A01 T02370169  RH  069%=      5-min Rain = 0
KCES 101420Z 01003KT 24/17 A3013 RMK A01 T02390170  RH  069%=      5-min Rain = 0
KCES 101425Z 03003KT 24/17 A3013 RMK A01 T02430171  RH  067%=      5-min Rain = 0
KCES 101430Z 01003KT 24/17 A3013 RMK A01 T02440171  RH  067%=      5-min Rain = 0
KCES 101435Z 03003KT 25/17 A3013 RMK A01 T02460172  RH  067%=      5-min Rain = 0
KCES 101440Z 03004KT 25/17 A3013 RMK A01 T02500171  RH  065%=      5-min Rain = 0
KCES 101445Z 03004KT 25/17 A3013 RMK A01 T02530171  RH  064%=      5-min Rain = 0
KCES 101450Z 02004KT 26/17 A3013 RMK A01 T02550173  RH  064%=      5-min Rain = 0
KCES 101455Z 02004KT 26/18 A3013 RMK A01 T02570175  RH  064%=      5-min Rain = 0
KCES 101500Z 02003KT 26/18 A3013 RMK A01 T02600176  RH  063%=      5-min Rain = 0
KCES 101505Z 06003KT 27/18 A3013 RMK A01 T02660176  RH  061%=      5-min Rain = 0
KCES 101510Z 11003KT 27/17 A3013 RMK A01 T02720174  RH  058%=      5-min Rain = 0
KCES 101515Z 02005KT 28/18 A3013 RMK A01 T02750177  RH  058%=      5-min Rain = 0
KCES 101520Z 06005KT 27/18 A3013 RMK A01 T02690179  RH  061%=      5-min Rain = 0
KCES 101525Z 11004KT 27/18 A3013 RMK A01 T02690177  RH  060%=      5-min Rain = 0
KCES 101530Z 12004KT 27/18 A3013 RMK A01 T02710177  RH  059%=      5-min Rain = 0
KCES 101535Z 14004KT 28/18 A3013 RMK A01 T02750176  RH  058%=      5-min Rain = 0
KCES 101540Z 11003KT 28/18 A3013 RMK A01 T02770175  RH  057%=      5-min Rain = 0
KCES 101545Z 08005KT 28/18 A3013 RMK A01 T02760177  RH  058%=      5-min Rain = 0
KCES 101550Z 11005KT 28/18 A3013 RMK A01 T02770177  RH  058%=      5-min Rain = 0
KCES 101555Z 11004KT 28/18 A3013 RMK A01 T02800176  RH  056%=      5-min Rain = 0
KCES 101600Z 10005KT 28/18 A3013 RMK A01 T02800176  RH  056%=      5-min Rain = 0
KCES 101605Z 08003KT 28/18 A3013 RMK A01 T02820177  RH  056%=      5-min Rain = 0
KCES 101610Z 09005KT 29/18 A3013 RMK A01 T02860176  RH  054%=      5-min Rain = 0
KCES 101615Z 08005KT 29/18 A3013 RMK A01 T02870175  RH  053%=      5-min Rain = 0
KCES 101620Z 12003KT 29/17 A3013 RMK A01 T02890174  RH  052%=      5-min Rain = 0
KCES 101625Z 08003KT 29/17 A3013 RMK A01 T02900172  RH  052%=      5-min Rain = 0
KCES 101630Z 08005KT 29/17 A3013 RMK A01 T02940170  RH  050%=      5-min Rain = 0
KCES 101635Z 10006KT 29/17 A3013 RMK A01 T02900172  RH  052%=      5-min Rain = 0
KCES 101640Z 10004KT 29/17 A3013 RMK A01 T02890172  RH  052%=      5-min Rain = 0
KCES 101645Z 09005KT 29/17 A3013 RMK A01 T02930170  RH  050%=      5-min Rain = 0
KCES 101650Z 08005KT 29/17 A3013 RMK A01 T02940170  RH  050%=      5-min Rain = 0
KCES 101655Z 08006KT 29/17 A3013 RMK A01 T02930171  RH  050%=      5-min Rain = 0
KCES 101700Z 07004G9KT 29/17 A3013 RMK A01 T02940174  RH  051%=      5-min Rain = 0
KCES 101705Z 09007KT 30/18 A3013 RMK A01 T02960175  RH  051%=      5-min Rain = 0
KCES 101710Z 11005KT 30/18 A3012 RMK A01 T02960177  RH  051%=      5-min Rain = 0
KCES 101715Z 10006KT 30/18 A3012 RMK A01 T02990178  RH  051%=      5-min Rain = 0
KCES 101720Z 11006KT 30/18 A3012 RMK A01 T02990176  RH  050%=      5-min Rain = 0
KCES 101725Z 09006KT 30/18 A3012 RMK A01 T03010175  RH  050%=      5-min Rain = 0
KCES 101730Z 09008G13KT 31/17 A3012 RMK A01 T03050170  RH  047%=      5-min Rain = 0
KCES 101735Z 13007KT 31/17 A3012 RMK A01 T03090166  RH  044%=      5-min Rain = 0
KCES 101740Z 10006KT 31/17 A3012 RMK A01 T03050167  RH  046%=      5-min Rain = 0
KCES 101745Z 11007G12KT 31/16 A3011 RMK A01 T03050160  RH  044%=      5-min Rain = 0
KCES 101750Z 09007G12KT 31/16 A3011 RMK A01 T03100160  RH  042%=      5-min Rain = 0
KCES 101755Z 08008G15KT 31/16 A3011 RMK A01 T03110164  RH  043%=      5-min Rain = 0
KCES 101800Z 08006G11KT 31/16 A3011 RMK A01 T03090158  RH  042%=      5-min Rain = 0
KCES 101805Z 10007G12KT 31/15 A3011 RMK A01 T03130153  RH  040%=      5-min Rain = 0
KCES 101810Z 07008KT 31/15 A301 RMK A01 T03140154  RH  040%=      5-min Rain = 0
KCES 101815Z 07008KT 31/15 A301 RMK A01 T03110148  RH  039%=      5-min Rain = 0
KCES 101820Z 11007KT 31/15 A301 RMK A01 T03090149  RH  039%=      5-min Rain = 0
KCES 101825Z 10010G15KT 31/15 A301 RMK A01 T03120148  RH  039%=      5-min Rain = 0
KCES 101830Z 08008G14KT 31/15 A3009 RMK A01 T03100145  RH  039%=      5-min Rain = 0
KCES 101835Z 11008KT 31/14 A3009 RMK A01 T03130142  RH  037%=      5-min Rain = 0
KCES 101840Z 09009KT 31/15 A3009 RMK A01 T03130146  RH  038%=      5-min Rain = 0
KCES 101845Z 11010G17KT 31/14 A3008 RMK A01 T03130144  RH  038%=      5-min Rain = 0
KCES 101850Z 09008KT 31/14 A3008 RMK A01 T03130139  RH  036%=      5-min Rain = 0
KCES 101855Z 10009KT 31/14 A3008 RMK A01 T03130138  RH  036%=      5-min Rain = 0
KCES 101900Z 11006G11KT 31/14 A3008 RMK A01 T03090138  RH  037%=      5-min Rain = 0
KCES 101905Z 12008KT 31/14 A3008 RMK A01 T03070142  RH  038%=      5-min Rain = 0
KCES 101910Z 10008KT 31/14 A3008 RMK A01 T03050139  RH  038%=      5-min Rain = 0
KCES 101915Z 10006KT 31/14 A3008 RMK A01 T03070135  RH  036%=      5-min Rain = 0
KCES 101920Z 12006KT 31/13 A3007 RMK A01 T03090133  RH  036%=      5-min Rain = 0
KCES 101925Z 10008KT 31/14 A3007 RMK A01 T03110136  RH  036%=      5-min Rain = 0
KCES 101930Z 11008G14KT 31/13 A3007 RMK A01 T03120131  RH  035%=      5-min Rain = 0
KCES 101935Z 10008KT 31/13 A3007 RMK A01 T03120125  RH  033%=      5-min Rain = 0
KCES 101940Z 10007KT 31/13 A3006 RMK A01 T03120128  RH  034%=      5-min Rain = 0
KCES 101945Z 09008G13KT 31/13 A3006 RMK A01 T03110131  RH  035%=      5-min Rain = 0
KCES 101950Z 07008G15KT 31/13 A3007 RMK A01 T03140134  RH  035%=      5-min Rain = 0
KCES 101955Z 05011G17KT 32/13 A3007 RMK A01 T03160131  RH  034%=      5-min Rain = 0
KCES 102000Z 04015G20KT 30/15 A3007 RMK A01 T03020146  RH  040%=      5-min Rain = 0
KCES 102005Z 04011KT 29/15 A3007 RMK A01 T02920150  RH  044%=      5-min Rain = 0
KCES 102010Z 03010KT 29/15 A3007 RMK A01 T02870152  RH  046%=      5-min Rain = 0
KCES 102015Z 04008KT 28/15 A3007 RMK A01 T02840152  RH  047%=      5-min Rain = 0
KCES 102020Z 05007KT 29/15 A3007 RMK A01 T02870153  RH  046%=      5-min Rain = 0
KCES 102025Z 06007KT 29/15 A3007 RMK A01 T02880152  RH  046%=      5-min Rain = 0
KCES 102030Z 06009KT 29/15 A3006 RMK A01 T02910151  RH  045%=      5-min Rain = 0
KCES 102035Z 09008KT 29/15 A3007 RMK A01 T02920149  RH  044%=      5-min Rain = 0
KCES 102040Z 12011KT 29/15 A3007 RMK A01 T02920150  RH  044%=      5-min Rain = 0
KCES 102045Z 13012KT 29/15 A3008 RMK A01 T02920149  RH  044%=      5-min Rain = 0
KCES 102050Z 12011KT 29/15 A3008 RMK A01 T02920149  RH  044%=      5-min Rain = 0
KCES 102055Z 11013G20KT 29/16 A3008 RMK A01 T02870155  RH  047%=      5-min Rain = 0
KCES 102100Z 13014G20KT 28/15 A3008 RMK A01 T02770154  RH  049%=      5-min Rain = 0
KCES 102105Z 14013KT 27/14 A3008 RMK A01 T02690142  RH  048%=      5-min Rain = 0
KCES 102110Z 15011KT 27/13 A3008 RMK A01 T02740133  RH  044%=      5-min Rain = 0
KCES 102115Z 15010KT 28/13 A3007 RMK A01 T02780128  RH  041%=      5-min Rain = 0
KCES 102120Z 14010KT 28/14 A3007 RMK A01 T02770141  RH  045%=      5-min Rain = 0
KCES 102125Z 14008KT 28/14 A3007 RMK A01 T02750143  RH  046%=      5-min Rain = 0
KCES 102130Z 14007KT 28/14 A3006 RMK A01 T02760141  RH  045%=      5-min Rain = 0
KCES 102135Z 15006KT 28/14 A3007 RMK A01 T02770141  RH  045%=      5-min Rain = 0
KCES 102140Z 16006KT 28/14 A3007 RMK A01 T02760144  RH  046%=      5-min Rain = 0
KCES 102145Z 16005KT 28/15 A3007 RMK A01 T02760146  RH  047%=      5-min Rain = 0
KCES 102150Z 15004KT 28/15 A3007 RMK A01 T02780147  RH  047%=      5-min Rain = 0
KCES 102155Z 16004KT 28/15 A3007 RMK A01 T02780147  RH  047%=      5-min Rain = 0
KCES 102200Z 15003KT 28/15 A3007 RMK A01 T02780149  RH  047%=      5-min Rain = 0
KCES 102205Z 14002KT 28/15 A3007 RMK A01 T02790147  RH  047%=      5-min Rain = 0
KCES 102210Z 16001KT 28/15 A3006 RMK A01 T02800148  RH  047%=      5-min Rain = 0
KCES 102215Z 17000KT 28/14 A3006 RMK A01 T02820144  RH  045%=      5-min Rain = 0
KCES 102220Z 16000KT 28/14 A3006 RMK A01 T02840142  RH  043%=      5-min Rain = 0
KCES 102225Z 18004G10KT 29/14 A3006 RMK A01 T02860144  RH  044%=      5-min Rain = 0
KCES 102230Z 20009KT 28/15 A3006 RMK A01 T02810148  RH  046%=      5-min Rain = 0
KCES 102235Z 20009KT 28/15 A3006 RMK A01 T02770148  RH  047%=      5-min Rain = 0
KCES 102240Z 21009KT 28/15 A3006 RMK A01 T02750146  RH  047%=      5-min Rain = 0
KCES 102245Z 20009KT 27/15 A3006 RMK A01 T02740146  RH  048%=      5-min Rain = 0
KCES 102250Z 20009KT 27/15 A3007 RMK A01 T02730146  RH  048%=      5-min Rain = 0
KCES 102255Z 20009KT 27/15 A3007 RMK A01 T02720145  RH  048%=      5-min Rain = 0
KCES 102300Z 20007KT 27/14 A3007 RMK A01 T02710144  RH  048%=      5-min Rain = 0
KCES 102305Z 20006KT 27/15 A3008 RMK A01 T02710145  RH  048%=      5-min Rain = 0
KCES 102310Z 21005KT 27/15 A3008 RMK A01 T02700145  RH  048%=      5-min Rain = 0
KCES 102315Z 19004KT 27/15 A3008 RMK A01 T02690146  RH  049%=      5-min Rain = 0
KCES 102320Z 20004KT 27/15 A3007 RMK A01 T02690147  RH  049%=      5-min Rain = 0
KCES 102325Z 19004KT 27/15 A3008 RMK A01 T02690149  RH  050%=      5-min Rain = 0
KCES 102330Z 17004KT 27/15 A3008 RMK A01 T02690150  RH  050%=      5-min Rain = 0
KCES 102335Z 18002KT 27/15 A3008 RMK A01 T02690150  RH  050%=      5-min Rain = 0
KCES 102340Z 19000KT 27/15 A3008 RMK A01 T02690151  RH  051%=      5-min Rain = 0
KCES 102345Z 18000KT 27/15 A3008 RMK A01 T02690151  RH  051%=      5-min Rain = 0
KCES 102350Z 18003KT 27/15 A3007 RMK A01 T02700152  RH  051%=      5-min Rain = 0
KCES 102355Z 15004KT 27/15 A3008 RMK A01 T02690152  RH  051%=      5-min Rain = 0
KCES 110000Z 13003KT 27/15 A3008 RMK A01 T02680154  RH  052%=      5-min Rain = 0
KCES 110005Z 11004KT 27/15 A3008 RMK A01 T02660153  RH  052%=      5-min Rain = 0
KCES 110010Z 07005G10KT 27/16 A3008 RMK A01 T02660161  RH  055%=      5-min Rain = 0
KCES 110015Z 06008KT 26/16 A3007 RMK A01 T02640160  RH  055%=      5-min Rain = 0
KCES 110020Z 08003KT 26/16 A3007 RMK A01 T02620156  RH  054%=      5-min Rain = 0
KCES 110025Z 07003KT 26/16 A3006 RMK A01 T02610156  RH  055%=      5-min Rain = 0
KCES 110030Z 08004KT 26/16 A3007 RMK A01 T02610157  RH  055%=      5-min Rain = 0
KCES 110035Z 08004KT 26/16 A3007 RMK A01 T02600159  RH  056%=      5-min Rain = 0
KCES 110040Z 09005KT 26/16 A3007 RMK A01 T02590157  RH  056%=      5-min Rain = 0
KCES 110045Z 07003KT 26/15 A3006 RMK A01 T02570153  RH  055%=      5-min Rain = 0
KCES 110050Z 04002KT 26/15 A3006 RMK A01 T02550154  RH  056%=      5-min Rain = 0
KCES 110055Z 03001KT 26/15 A3006 RMK A01 T02550154  RH  056%=      5-min Rain = 0
KCES 110100Z 01002KT 25/16 A3007 RMK A01 T02540155  RH  057%=      5-min Rain = 0
KCES 110105Z 03002KT 25/16 A3007 RMK A01 T02530155  RH  057%=      5-min Rain = 0
KCES 110110Z 03003KT 25/16 A3007 RMK A01 T02520156  RH  058%=      5-min Rain = 0
KCES 110115Z 05003KT 25/16 A3008 RMK A01 T02510156  RH  058%=      5-min Rain = 0
KCES 110120Z 00002KT 25/16 A3007 RMK A01 T02500157  RH  059%=      5-min Rain = 0
KCES 110125Z 02002KT 25/16 A3007 RMK A01 T02480157  RH  060%=      5-min Rain = 0
KCES 110130Z 06003KT 25/16 A3007 RMK A01 T02470157  RH  060%=      5-min Rain = 0
KCES 110135Z 07004KT 25/16 A3007 RMK A01 T02470157  RH  060%=      5-min Rain = 0
KCES 110140Z 07003KT 25/16 A3007 RMK A01 T02460157  RH  060%=      5-min Rain = 0
KCES 110145Z 05002KT 25/16 A3007 RMK A01 T02460157  RH  060%=      5-min Rain = 0
KCES 110150Z 01002KT 24/16 A3008 RMK A01 T02410157  RH  062%=      5-min Rain = 0
KCES 110155Z 36003KT 24/16 A3008 RMK A01 T02370157  RH  064%=      5-min Rain = 0
KCES 110200Z 01003KT 24/16 A3008 RMK A01 T02350158  RH  065%=      5-min Rain = 0
KCES 110205Z 03003KT 24/16 A3008 RMK A01 T02350159  RH  065%=      5-min Rain = 0
KCES 110210Z 04003KT 24/16 A3009 RMK A01 T02360159  RH  065%=      5-min Rain = 0
KCES 110215Z 06004KT 24/16 A3009 RMK A01 T02370160  RH  065%=      5-min Rain = 0
KCES 110220Z 07003KT 24/16 A301 RMK A01 T02380159  RH  064%=      5-min Rain = 0
KCES 110225Z 07004KT 24/16 A301 RMK A01 T02390160  RH  064%=      5-min Rain = 0
KCES 110230Z 06003KT 24/16 A301 RMK A01 T02400160  RH  064%=      5-min Rain = 0
KCES 110235Z 07004KT 24/16 A3011 RMK A01 T02400158  RH  063%=      5-min Rain = 0
KCES 110240Z 09005KT 24/16 A3011 RMK A01 T02400157  RH  063%=      5-min Rain = 0
KCES 110245Z 08004KT 24/16 A3011 RMK A01 T02400157  RH  062%=      5-min Rain = 0
KCES 110250Z 07004KT 24/16 A3011 RMK A01 T02390157  RH  063%=      5-min Rain = 0
KCES 110255Z 07003KT 24/16 A3011 RMK A01 T02380157  RH  064%=      5-min Rain = 0
KCES 110300Z 08004KT 24/16 A3011 RMK A01 T02360157  RH  064%=      5-min Rain = 0
KCES 110305Z 08005KT 24/16 A3012 RMK A01 T02350157  RH  065%=      5-min Rain = 0
KCES 110310Z 07004KT 24/16 A3012 RMK A01 T02350158  RH  065%=      5-min Rain = 0
KCES 110315Z 07004KT 24/16 A3012 RMK A01 T02350158  RH  065%=      5-min Rain = 0
KCES 110320Z 05004KT 23/16 A3012 RMK A01 T02330158  RH  065%=      5-min Rain = 0
KCES 110325Z 04004KT 23/16 A3012 RMK A01 T02320158  RH  066%=      5-min Rain = 0
KCES 110330Z 04004KT 23/16 A3013 RMK A01 T02310157  RH  066%=      5-min Rain = 0
KCES 110335Z 05004KT 23/16 A3013 RMK A01 T02320157  RH  066%=      5-min Rain = 0
KCES 110340Z 06003KT 23/16 A3013 RMK A01 T02330157  RH  065%=      5-min Rain = 0
KCES 110345Z 05003KT 23/16 A3013 RMK A01 T02330157  RH  065%=      5-min Rain = 0
KCES 110350Z 05003KT 23/16 A3013 RMK A01 T02330157  RH  065%=      5-min Rain = 0
KCES 110355Z 04003KT 23/16 A3013 RMK A01 T02300157  RH  067%=      5-min Rain = 0
KCES 110400Z 02003KT 23/16 A3013 RMK A01 T02270157  RH  068%=      5-min Rain = 0
KCES 110405Z 02003KT 22/16 A3013 RMK A01 T02240158  RH  070%=      5-min Rain = 0
KCES 110410Z 02003KT 22/16 A3013 RMK A01 T02220159  RH  071%=      5-min Rain = 0
KCES 110415Z 01004KT 22/16 A3013 RMK A01 T02200159  RH  072%=      5-min Rain = 0
KCES 110420Z 01005KT 22/16 A3013 RMK A01 T02180159  RH  073%=      5-min Rain = 0
KCES 110425Z 02004KT 22/16 A3013 RMK A01 T02160158  RH  073%=      5-min Rain = 0
KCES 110430Z 03003KT 22/16 A3013 RMK A01 T02160158  RH  073%=      5-min Rain = 0
KCES 110435Z 01004KT 22/16 A3013 RMK A01 T02160159  RH  073%=      5-min Rain = 0
KCES 110440Z 00002KT 21/16 A3013 RMK A01 T02140159  RH  075%=      5-min Rain = 0
KCES 110445Z 35002KT 21/16 A3012 RMK A01 T02130160  RH  075%=      5-min Rain = 0
KCES 110450Z 34003KT 21/16 A3012 RMK A01 T02130161  RH  076%=      5-min Rain = 0
KCES 110455Z 00003KT 21/16 A3012 RMK A01 T02110162  RH  077%=      5-min Rain = 0
KCES 110500Z 35002KT 21/16 A3012 RMK A01 T02100163  RH  078%=      5-min Rain = 0

Page generated in 0.0092 seconds.